createdAt,value
2023-09-07T00:04:13.421Z,57.74
2023-09-07T00:06:13.291Z,57.69
2023-09-07T00:08:13.300Z,57.99
2023-09-07T00:10:13.348Z,58.09
2023-09-07T00:12:13.276Z,58.04
2023-09-07T00:15:13.318Z,58.64
2023-09-07T00:17:13.412Z,58.35
2023-09-07T00:19:13.336Z,58.40
2023-09-07T00:21:13.330Z,58.27
2023-09-07T00:23:13.341Z,57.95
2023-09-07T00:26:13.348Z,58.00
2023-09-07T00:28:13.376Z,57.72
2023-09-07T00:30:13.336Z,57.52
2023-09-07T00:32:13.390Z,57.64
2023-09-07T00:34:13.369Z,57.71
2023-09-07T00:36:13.375Z,57.76
2023-09-07T00:38:13.343Z,57.74
2023-09-07T00:40:13.384Z,57.82
2023-09-07T00:42:13.382Z,57.64
2023-09-07T00:44:13.396Z,57.73
2023-09-07T00:47:13.458Z,57.89
2023-09-07T00:49:13.409Z,57.86
2023-09-07T00:54:13.376Z,57.77
2023-09-07T00:56:13.389Z,57.76
2023-09-07T00:58:13.446Z,57.92
2023-09-07T01:00:13.453Z,57.83
2023-09-07T01:02:13.545Z,58.07
2023-09-07T01:04:13.407Z,57.53
2023-09-07T01:06:13.471Z,57.40
2023-09-07T01:08:13.533Z,57.34
2023-09-07T01:10:13.469Z,57.23
2023-09-07T01:12:13.427Z,57.69
2023-09-07T01:16:13.597Z,57.63
2023-09-07T01:18:23.979Z,57.82
2023-09-07T01:20:13.449Z,57.87
2023-09-07T01:22:13.461Z,57.49
2023-09-07T01:24:13.495Z,57.26
2023-09-07T01:28:13.478Z,57.18
2023-09-07T01:30:13.526Z,57.29
2023-09-07T01:32:13.561Z,57.22
2023-09-07T01:34:13.522Z,57.07
2023-09-07T01:36:13.488Z,57.07
2023-09-07T01:38:13.496Z,57.07
2023-09-07T01:40:13.534Z,57.22
2023-09-07T01:42:13.540Z,58.23
2023-09-07T01:44:13.524Z,58.40
2023-09-07T01:46:13.557Z,58.01
2023-09-07T01:48:13.617Z,57.80
2023-09-07T01:50:13.610Z,57.25
2023-09-07T01:52:13.522Z,57.26
2023-09-07T01:54:13.559Z,57.05
2023-09-07T01:56:13.719Z,56.82
2023-09-07T01:59:13.597Z,57.10
2023-09-07T02:01:13.632Z,57.04
2023-09-07T02:03:13.618Z,56.88
2023-09-07T02:05:13.613Z,56.89
2023-09-07T02:07:13.559Z,57.25
2023-09-07T02:09:13.643Z,57.82
2023-09-07T02:11:13.667Z,57.89
2023-09-07T02:13:13.628Z,57.95
2023-09-07T02:16:13.709Z,58.90
2023-09-07T02:18:13.602Z,58.78
2023-09-07T02:20:13.650Z,58.93
2023-09-07T02:22:13.708Z,59.36
2023-09-07T02:24:13.665Z,59.78
2023-09-07T02:26:13.662Z,59.34
2023-09-07T02:28:13.664Z,59.36
2023-09-07T02:30:13.742Z,59.39
2023-09-07T02:32:13.676Z,60.13
2023-09-07T02:34:13.688Z,60.01
2023-09-07T02:36:13.657Z,60.40
2023-09-07T02:38:13.659Z,61.03
2023-09-07T02:40:13.714Z,60.37
2023-09-07T02:43:13.722Z,58.98
2023-09-07T02:45:13.776Z,58.71
2023-09-07T02:47:13.682Z,58.51
2023-09-07T02:49:13.679Z,58.12
2023-09-07T02:51:13.756Z,57.76
2023-09-07T02:53:13.721Z,57.76
2023-09-07T02:56:13.745Z,57.29
2023-09-07T02:58:13.770Z,57.41
2023-09-07T03:00:13.728Z,57.46
2023-09-07T03:02:13.769Z,57.55
2023-09-07T03:06:13.777Z,57.62
2023-09-07T03:08:13.778Z,57.68
2023-09-07T03:10:13.765Z,57.72
2023-09-07T03:13:13.743Z,57.85
2023-09-07T03:15:13.764Z,57.99
2023-09-07T03:17:13.939Z,58.00
2023-09-07T03:20:13.754Z,58.18
2023-09-07T03:23:13.774Z,58.13
2023-09-07T03:27:13.806Z,58.10
2023-09-07T03:29:13.798Z,58.23
2023-09-07T03:31:13.913Z,58.31
2023-09-07T03:33:13.998Z,58.30
2023-09-07T03:35:13.846Z,58.41
2023-09-07T03:39:13.851Z,58.52
2023-09-07T03:42:13.815Z,58.60
2023-09-07T03:44:13.821Z,58.81
2023-09-07T03:46:13.917Z,58.87
2023-09-07T03:48:13.925Z,59.15
2023-09-07T03:51:13.867Z,59.46
2023-09-07T03:53:13.954Z,59.34
2023-09-07T03:55:13.831Z,59.43
2023-09-07T03:58:13.890Z,59.53
2023-09-07T04:01:13.944Z,59.93
2023-09-07T04:04:13.966Z,60.08
2023-09-07T04:06:13.966Z,60.07
2023-09-07T04:08:13.886Z,59.92
2023-09-07T04:10:13.904Z,59.79
2023-09-07T04:12:13.938Z,59.87
2023-09-07T04:14:13.924Z,59.77
2023-09-07T04:16:13.958Z,59.76
2023-09-07T04:18:13.905Z,59.68
2023-09-07T04:20:13.944Z,59.71
2023-09-07T04:22:13.954Z,59.81
2023-09-07T04:24:13.953Z,59.84
2023-09-07T04:26:13.918Z,59.96
2023-09-07T04:29:13.936Z,60.06
2023-09-07T04:31:13.971Z,60.05
2023-09-07T04:33:13.978Z,60.50
2023-09-07T04:35:13.984Z,60.77
2023-09-07T04:37:14.010Z,61.05
2023-09-07T04:39:13.954Z,61.06
2023-09-07T04:41:14.081Z,60.78
2023-09-07T04:43:14.020Z,60.78
2023-09-07T04:45:14.032Z,60.94
2023-09-07T04:47:14.022Z,61.26
2023-09-07T04:50:14.010Z,61.62
2023-09-07T04:53:14.097Z,61.62
2023-09-07T04:55:14.015Z,61.79
2023-09-07T04:57:13.999Z,62.02
2023-09-07T04:59:14.056Z,61.87
2023-09-07T05:01:14.118Z,61.70
2023-09-07T05:03:14.123Z,61.54
2023-09-07T05:05:14.013Z,61.27
2023-09-07T05:07:14.066Z,61.14
2023-09-07T05:10:14.062Z,60.99
2023-09-07T05:12:14.108Z,60.96
2023-09-07T05:14:14.085Z,60.72
2023-09-07T05:17:14.095Z,60.72
2023-09-07T05:19:14.120Z,60.70
2023-09-07T05:21:14.120Z,60.90
2023-09-07T05:23:14.115Z,60.83
2023-09-07T05:25:14.114Z,60.71
2023-09-07T05:28:14.110Z,60.69
2023-09-07T05:30:14.132Z,60.68
2023-09-07T05:32:14.090Z,60.62
2023-09-07T05:34:14.109Z,60.61
2023-09-07T05:36:14.138Z,60.54
2023-09-07T05:38:14.145Z,60.37
2023-09-07T05:40:14.211Z,60.21
2023-09-07T05:42:14.130Z,59.81
2023-09-07T05:44:14.164Z,59.56
2023-09-07T05:46:14.264Z,59.44
2023-09-07T05:48:14.242Z,59.42
2023-09-07T05:50:14.141Z,58.97
2023-09-07T05:52:14.194Z,58.48
2023-09-07T05:54:14.214Z,58.25
2023-09-07T05:56:14.191Z,58.14
2023-09-07T05:58:14.223Z,57.73
2023-09-07T06:00:14.250Z,57.30
2023-09-07T06:02:14.226Z,57.08
2023-09-07T06:04:14.393Z,57.05
2023-09-07T06:06:14.189Z,56.66
2023-09-07T06:08:14.237Z,56.46
2023-09-07T06:10:14.228Z,55.99
2023-09-07T06:12:14.255Z,55.89
2023-09-07T06:14:14.192Z,55.47
2023-09-07T06:16:14.230Z,55.14
2023-09-07T06:18:14.295Z,54.99
2023-09-07T06:20:14.404Z,54.82
2023-09-07T06:22:14.264Z,54.04
2023-09-07T06:24:14.233Z,54.08
2023-09-07T06:26:14.264Z,53.09
2023-09-07T06:28:14.290Z,52.57
2023-09-07T06:30:14.290Z,51.86
2023-09-07T06:32:14.332Z,50.87
2023-09-07T06:34:14.262Z,49.90
2023-09-07T06:36:14.299Z,49.35
2023-09-07T06:38:15.516Z,48.70
2023-09-07T06:40:14.274Z,47.93
2023-09-07T06:42:14.276Z,46.83
2023-09-07T06:44:14.326Z,46.04
2023-09-07T06:46:14.365Z,45.39
2023-09-07T06:48:14.343Z,44.57
2023-09-07T06:50:14.310Z,43.68
2023-09-07T06:52:14.509Z,42.84
2023-09-07T06:54:14.419Z,41.98
2023-09-07T06:56:14.316Z,41.35
2023-09-07T06:58:14.351Z,40.49
2023-09-07T07:00:14.351Z,39.84
2023-09-07T07:02:14.453Z,39.22
2023-09-07T07:04:14.411Z,38.73
2023-09-07T07:06:14.339Z,38.02
2023-09-07T07:08:14.380Z,37.23
2023-09-07T07:10:14.400Z,37.14
2023-09-07T07:12:14.395Z,36.69
2023-09-07T07:14:14.363Z,36.52
2023-09-07T07:16:14.427Z,36.16
2023-09-07T07:18:14.424Z,35.38
2023-09-07T07:20:14.426Z,35.15
2023-09-07T07:22:14.386Z,34.90
2023-09-07T07:24:14.385Z,34.54
2023-09-07T07:26:14.460Z,34.73
2023-09-07T07:28:14.446Z,34.45
2023-09-07T07:30:14.442Z,34.39
2023-09-07T07:32:14.477Z,34.03
2023-09-07T07:34:14.448Z,33.28
2023-09-07T07:36:14.583Z,33.30
2023-09-07T07:38:14.476Z,33.26
2023-09-07T07:40:14.443Z,32.59
2023-09-07T07:42:14.440Z,32.56
2023-09-07T07:44:14.472Z,31.62
2023-09-07T07:46:14.573Z,31.87
2023-09-07T07:48:14.487Z,32.35
2023-09-07T07:50:14.470Z,32.10
2023-09-07T07:52:14.507Z,32.18
2023-09-07T07:54:14.509Z,31.68
2023-09-07T07:56:14.523Z,31.34
2023-09-07T07:58:14.469Z,31.30
2023-09-07T08:00:14.679Z,31.82
2023-09-07T08:02:14.523Z,31.94
2023-09-07T08:04:14.682Z,31.65
2023-09-07T08:07:14.572Z,31.81
2023-09-07T08:09:14.506Z,31.18
2023-09-07T08:11:14.514Z,31.13
2023-09-07T08:13:14.613Z,31.01
2023-09-07T08:15:14.560Z,31.14
2023-09-07T08:17:14.695Z,30.84
2023-09-07T08:19:14.633Z,30.89
2023-09-07T08:21:14.581Z,30.86
2023-09-07T08:23:14.601Z,30.67
2023-09-07T08:25:14.605Z,30.16
2023-09-07T08:27:14.564Z,30.24
2023-09-07T08:29:14.600Z,30.92
2023-09-07T08:31:14.657Z,30.87
2023-09-07T08:33:14.691Z,30.40
2023-09-07T08:35:14.632Z,30.31
2023-09-07T08:37:14.621Z,30.27
2023-09-07T08:39:14.655Z,30.08
2023-09-07T08:41:14.635Z,29.72
2023-09-07T08:43:14.607Z,29.76
2023-09-07T08:45:14.683Z,29.61
2023-09-07T08:47:14.641Z,29.22
2023-09-07T08:49:14.649Z,29.31
2023-09-07T08:51:14.626Z,29.38
2023-09-07T08:53:14.638Z,29.55
2023-09-07T08:55:14.677Z,29.73
2023-09-07T08:57:14.697Z,29.80
2023-09-07T08:59:14.648Z,30.26
2023-09-07T09:01:14.857Z,29.55
2023-09-07T09:03:14.934Z,29.10
2023-09-07T09:05:14.689Z,28.63
2023-09-07T09:07:14.697Z,28.70
2023-09-07T09:09:14.835Z,28.87
2023-09-07T09:11:14.711Z,28.47
2023-09-07T09:13:14.727Z,28.64
2023-09-07T09:15:14.684Z,28.74
2023-09-07T09:17:14.702Z,28.84
2023-09-07T09:19:14.738Z,29.20
2023-09-07T09:21:14.738Z,28.40
2023-09-07T09:23:14.788Z,28.95
2023-09-07T09:25:14.713Z,29.02
2023-09-07T09:27:14.718Z,29.05
2023-09-07T09:29:14.770Z,29.03
2023-09-07T09:31:14.772Z,29.23
2023-09-07T09:33:14.774Z,29.56
2023-09-07T09:35:14.754Z,29.75
2023-09-07T09:37:14.788Z,29.90
2023-09-07T09:39:14.789Z,30.40
2023-09-07T09:41:14.768Z,30.47
2023-09-07T09:43:14.755Z,30.59
2023-09-07T09:45:14.794Z,30.52
2023-09-07T09:47:14.926Z,31.77
2023-09-07T09:49:14.783Z,32.54
2023-09-07T09:51:14.773Z,33.03
2023-09-07T09:53:14.926Z,32.82
2023-09-07T09:55:14.838Z,34.24
2023-09-07T09:57:14.793Z,34.83
2023-09-07T09:59:14.940Z,35.60
2023-09-07T10:01:14.877Z,35.49
2023-09-07T10:03:14.934Z,34.75
2023-09-07T10:05:14.893Z,34.22
2023-09-07T10:07:14.869Z,33.26
2023-09-07T10:09:14.860Z,33.82
2023-09-07T10:11:14.876Z,34.52
2023-09-07T10:13:14.921Z,34.42
2023-09-07T10:15:14.869Z,33.72
2023-09-07T10:17:14.930Z,34.62
2023-09-07T10:19:14.890Z,35.62
2023-09-07T10:21:14.904Z,35.49
2023-09-07T10:23:14.885Z,34.96
2023-09-07T10:25:14.880Z,34.15
2023-09-07T10:27:14.919Z,34.65
2023-09-07T10:29:14.921Z,34.58
2023-09-07T10:31:14.950Z,34.21
2023-09-07T10:33:14.996Z,34.16
2023-09-07T10:35:14.939Z,34.84
2023-09-07T10:37:14.941Z,35.15
2023-09-07T10:39:17.303Z,35.75
2023-09-07T10:41:14.998Z,37.05
2023-09-07T10:43:14.962Z,37.07
2023-09-07T10:45:14.999Z,36.83
2023-09-07T10:47:14.943Z,36.39
2023-09-07T10:49:14.933Z,36.84
2023-09-07T10:51:14.998Z,36.78
2023-09-07T10:53:14.983Z,36.95
2023-09-07T10:55:15.049Z,36.98
2023-09-07T10:57:15.135Z,38.27
2023-09-07T10:59:14.969Z,38.13
2023-09-07T11:01:17.898Z,37.11
2023-09-07T11:03:15.154Z,37.41
2023-09-07T11:06:15.145Z,37.51
2023-09-07T11:08:15.029Z,37.64
2023-09-07T11:10:15.016Z,38.13
2023-09-07T11:12:15.039Z,37.70
2023-09-07T11:14:15.079Z,38.08
2023-09-07T11:16:15.084Z,37.69
2023-09-07T11:18:15.028Z,37.76
2023-09-07T11:20:15.042Z,37.41
2023-09-07T11:23:15.048Z,37.05
2023-09-07T11:25:15.078Z,37.64
2023-09-07T11:27:15.077Z,37.24
2023-09-07T11:29:15.086Z,37.34
2023-09-07T11:31:15.110Z,37.53
2023-09-07T11:33:15.150Z,37.60
2023-09-07T11:35:15.248Z,37.09
2023-09-07T11:37:15.138Z,36.90
2023-09-07T11:41:15.075Z,37.47
2023-09-07T11:43:15.138Z,37.45
2023-09-07T11:45:15.178Z,37.95
2023-09-07T11:47:15.112Z,38.36
2023-09-07T11:49:15.165Z,38.66
2023-09-07T11:51:15.142Z,38.68
2023-09-07T11:53:15.173Z,39.31
2023-09-07T11:55:15.226Z,38.78
2023-09-07T11:57:15.132Z,38.68
2023-09-07T11:59:15.217Z,38.77
2023-09-07T12:01:15.222Z,38.59
2023-09-07T12:03:15.199Z,38.62
2023-09-07T12:06:15.191Z,37.28
2023-09-07T12:08:15.173Z,37.69
2023-09-07T12:10:15.173Z,36.76
2023-09-07T12:12:15.199Z,37.06
2023-09-07T12:14:15.270Z,37.08
2023-09-07T12:16:15.265Z,37.82
2023-09-07T12:18:15.328Z,37.53
2023-09-07T12:20:15.254Z,37.09
2023-09-07T12:22:15.225Z,36.50
2023-09-07T12:24:15.260Z,36.45
2023-09-07T12:26:15.259Z,35.73
2023-09-07T12:28:15.241Z,35.51
2023-09-07T12:30:15.250Z,34.35
2023-09-07T12:32:15.288Z,34.48
2023-09-07T12:34:15.228Z,34.98
2023-09-07T12:36:15.237Z,35.73
2023-09-07T12:38:15.280Z,33.66
2023-09-07T12:40:15.276Z,33.33
2023-09-07T12:42:15.255Z,33.98
2023-09-07T12:44:15.255Z,34.66
2023-09-07T12:46:15.371Z,35.75
2023-09-07T12:48:15.311Z,35.36
2023-09-07T12:50:15.285Z,35.87
2023-09-07T12:52:15.292Z,36.31
2023-09-07T12:54:15.303Z,36.80
2023-09-07T12:56:15.323Z,36.76
2023-09-07T12:58:15.295Z,36.85
2023-09-07T13:00:15.302Z,36.95
2023-09-07T13:02:15.392Z,37.11
2023-09-07T13:04:15.348Z,37.54
2023-09-07T13:06:15.305Z,38.79
2023-09-07T13:08:15.309Z,37.99
2023-09-07T13:10:15.348Z,37.45
2023-09-07T13:12:15.362Z,37.44
2023-09-07T13:14:15.360Z,37.24
2023-09-07T13:16:15.364Z,36.89
2023-09-07T13:20:15.382Z,37.26
2023-09-07T13:22:15.395Z,36.40
2023-09-07T13:24:15.354Z,36.75
2023-09-07T13:26:15.383Z,37.13
2023-09-07T13:28:15.398Z,37.71
2023-09-07T13:30:15.412Z,38.05
2023-09-07T13:32:15.383Z,38.09
2023-09-07T13:34:15.378Z,38.00
2023-09-07T13:36:15.429Z,37.37
2023-09-07T13:38:15.443Z,38.30
2023-09-07T13:40:15.416Z,38.18
2023-09-07T13:42:15.409Z,38.44
2023-09-07T13:44:15.454Z,38.43
2023-09-07T13:46:15.477Z,38.58
2023-09-07T13:48:15.505Z,38.80
2023-09-07T13:50:15.434Z,38.71
2023-09-07T13:52:15.476Z,38.42
2023-09-07T13:54:15.480Z,38.11
2023-09-07T13:56:15.500Z,38.37
2023-09-07T13:58:15.450Z,37.89
2023-09-07T14:00:15.509Z,37.69
2023-09-07T14:02:15.549Z,38.10
2023-09-07T14:04:15.513Z,37.18
2023-09-07T14:07:15.522Z,36.77
2023-09-07T14:09:15.474Z,37.01
2023-09-07T14:11:15.500Z,37.44
2023-09-07T14:13:15.526Z,37.30
2023-09-07T14:15:15.535Z,37.47
2023-09-07T14:17:15.541Z,37.21
2023-09-07T14:19:15.723Z,36.30
2023-09-07T14:21:15.551Z,36.91
2023-09-07T14:23:15.558Z,36.66
2023-09-07T14:25:15.566Z,36.78
2023-09-07T14:27:15.538Z,36.72
2023-09-07T14:29:15.561Z,36.28
2023-09-07T14:31:15.634Z,36.94
2023-09-07T14:33:15.583Z,36.86
2023-09-07T14:35:15.568Z,36.06
2023-09-07T14:37:15.639Z,35.80
2023-09-07T14:39:15.587Z,36.37
2023-09-07T14:41:15.601Z,36.47
2023-09-07T14:43:15.572Z,35.90
2023-09-07T14:45:15.564Z,36.70
2023-09-07T14:47:15.609Z,36.57
2023-09-07T14:49:15.658Z,36.59
2023-09-07T14:53:15.603Z,37.31
2023-09-07T14:55:15.640Z,37.54
2023-09-07T14:57:18.135Z,37.22
2023-09-07T14:59:15.635Z,37.03
2023-09-07T15:01:15.619Z,36.08
2023-09-07T15:03:15.703Z,36.61
2023-09-07T15:05:15.748Z,37.02
2023-09-07T15:07:15.689Z,37.57
2023-09-07T15:09:15.641Z,37.27
2023-09-07T15:11:15.657Z,36.66
2023-09-07T15:13:15.686Z,36.91
2023-09-07T15:15:15.687Z,37.07
2023-09-07T15:17:15.691Z,37.24
2023-09-07T15:20:15.726Z,36.79
2023-09-07T15:23:15.745Z,36.42
2023-09-07T15:25:15.676Z,36.63
2023-09-07T15:27:15.696Z,36.68
2023-09-07T15:30:15.702Z,37.07
2023-09-07T15:32:15.811Z,37.11
2023-09-07T15:34:15.749Z,36.79
2023-09-07T15:36:15.746Z,37.16
2023-09-07T15:41:15.768Z,36.38
2023-09-07T15:43:15.730Z,36.58
2023-09-07T15:45:15.761Z,37.15
2023-09-07T15:47:15.823Z,36.39
2023-09-07T15:50:15.816Z,36.38
2023-09-07T15:52:15.792Z,37.00
2023-09-07T15:54:15.761Z,37.80
2023-09-07T15:56:15.821Z,38.18
2023-09-07T15:58:15.833Z,37.93
2023-09-07T16:00:15.820Z,37.68
2023-09-07T16:02:15.841Z,38.56
2023-09-07T16:04:15.842Z,37.86
2023-09-07T16:06:15.822Z,37.88
2023-09-07T16:09:15.808Z,38.11
2023-09-07T16:12:15.809Z,38.07
2023-09-07T16:14:15.834Z,38.17
2023-09-07T16:17:15.894Z,38.21
2023-09-07T16:19:17.387Z,38.49
2023-09-07T16:21:15.944Z,38.27
2023-09-07T16:26:15.904Z,38.44
2023-09-07T16:28:15.856Z,38.95
2023-09-07T16:30:15.863Z,38.78
2023-09-07T16:32:15.970Z,39.40
2023-09-07T16:34:15.896Z,39.32
2023-09-07T16:36:15.860Z,39.70
2023-09-07T16:38:15.890Z,39.57
2023-09-07T16:40:15.918Z,38.61
2023-09-07T16:42:15.917Z,38.92
2023-09-07T16:44:15.970Z,38.64
2023-09-07T16:46:15.948Z,38.77
2023-09-07T16:48:16.016Z,38.95
2023-09-07T16:51:15.924Z,39.53
2023-09-07T16:54:15.915Z,39.72
2023-09-07T16:56:15.933Z,39.88
2023-09-07T16:58:15.975Z,40.05
2023-09-07T17:00:16.008Z,40.13
2023-09-07T17:03:16.156Z,40.30
2023-09-07T17:05:16.140Z,40.53
2023-09-07T17:07:15.961Z,41.07
2023-09-07T17:09:15.989Z,41.66
2023-09-07T17:11:16.090Z,41.87
2023-09-07T17:13:16.004Z,42.88
2023-09-07T17:15:15.982Z,43.36
2023-09-07T17:17:16.036Z,43.41
2023-09-07T17:19:16.028Z,43.91
2023-09-07T17:21:16.026Z,43.57
2023-09-07T17:23:16.005Z,43.59
2023-09-07T17:25:16.008Z,43.80
2023-09-07T17:27:16.044Z,44.46
2023-09-07T17:29:16.052Z,44.58
2023-09-07T17:31:16.077Z,45.03
2023-09-07T17:33:16.162Z,45.07
2023-09-07T17:35:16.131Z,46.08
2023-09-07T17:37:16.078Z,46.62
2023-09-07T17:39:16.081Z,46.47
2023-09-07T17:41:16.041Z,46.92
2023-09-07T17:43:16.093Z,47.50
2023-09-07T17:45:16.106Z,47.55
2023-09-07T17:47:16.104Z,47.70
2023-09-07T17:49:16.062Z,47.57
2023-09-07T17:51:16.074Z,49.46
2023-09-07T17:53:16.122Z,47.57
2023-09-07T17:55:16.115Z,48.16
2023-09-07T17:57:16.128Z,47.96
2023-09-07T17:59:16.104Z,47.91
2023-09-07T18:01:16.249Z,47.72
2023-09-07T18:03:16.322Z,48.23
2023-09-07T18:05:16.107Z,47.93
2023-09-07T18:07:16.113Z,48.53
2023-09-07T18:10:16.127Z,48.71
2023-09-07T18:12:16.160Z,48.44
2023-09-07T18:14:16.176Z,48.97
2023-09-07T18:16:16.237Z,49.58
2023-09-07T18:18:16.204Z,50.16
2023-09-07T18:20:16.142Z,50.58
2023-09-07T18:22:16.189Z,51.67
2023-09-07T18:24:16.241Z,51.87
2023-09-07T18:26:16.496Z,52.16
2023-09-07T18:28:16.220Z,52.54
2023-09-07T18:31:16.304Z,52.44
2023-09-07T18:33:16.241Z,52.34
2023-09-07T18:35:16.225Z,52.60
2023-09-07T18:37:16.233Z,51.93
2023-09-07T18:40:16.245Z,52.02
2023-09-07T18:42:16.240Z,52.40
2023-09-07T18:44:16.214Z,53.50
2023-09-07T18:46:16.306Z,53.67
2023-09-07T18:48:16.299Z,54.03
2023-09-07T18:50:16.298Z,54.05
2023-09-07T18:52:16.246Z,54.29
2023-09-07T18:54:16.249Z,54.17
2023-09-07T18:56:16.281Z,53.61
2023-09-07T18:58:16.316Z,53.22
2023-09-07T19:00:16.369Z,53.67
2023-09-07T19:02:16.269Z,54.22
2023-09-07T19:04:16.309Z,54.33
2023-09-07T19:06:16.331Z,54.31
2023-09-07T19:08:16.287Z,54.33
2023-09-07T19:10:16.287Z,53.74
2023-09-07T19:12:16.324Z,53.58
2023-09-07T19:14:16.352Z,53.70
2023-09-07T19:16:16.342Z,53.92
2023-09-07T19:18:16.328Z,54.10
2023-09-07T19:20:16.436Z,54.48
2023-09-07T19:22:16.350Z,55.31
2023-09-07T19:24:16.363Z,55.53
2023-09-07T19:26:16.365Z,55.38
2023-09-07T19:28:16.329Z,55.07
2023-09-07T19:30:16.374Z,54.52
2023-09-07T19:32:16.368Z,54.36
2023-09-07T19:36:16.360Z,54.21
2023-09-07T19:38:16.393Z,54.70
2023-09-07T19:40:16.410Z,54.57
2023-09-07T19:43:16.409Z,54.53
2023-09-07T19:45:16.419Z,54.44
2023-09-07T19:48:16.463Z,54.46
2023-09-07T19:50:16.397Z,54.50
2023-09-07T19:52:16.403Z,54.51
2023-09-07T19:54:16.483Z,54.76
2023-09-07T19:56:16.447Z,54.87
2023-09-07T19:58:16.430Z,54.88
2023-09-07T20:00:16.491Z,55.17
2023-09-07T20:02:16.491Z,56.53
2023-09-07T20:04:16.560Z,57.29
2023-09-07T20:06:16.494Z,57.12
2023-09-07T20:08:16.448Z,57.23
2023-09-07T20:10:16.470Z,57.21
2023-09-07T20:12:16.596Z,57.24
2023-09-07T20:14:16.522Z,57.57
2023-09-07T20:16:16.578Z,57.83
2023-09-07T20:18:16.565Z,57.57
2023-09-07T20:20:16.494Z,57.36
2023-09-07T20:22:16.573Z,57.36
2023-09-07T20:24:16.488Z,57.67
2023-09-07T20:26:16.491Z,57.36
2023-09-07T20:28:16.538Z,57.13
2023-09-07T20:30:16.530Z,57.22
2023-09-07T20:32:16.604Z,57.21
2023-09-07T20:34:16.501Z,57.35
2023-09-07T20:36:16.574Z,57.29
2023-09-07T20:38:16.546Z,57.07
2023-09-07T20:40:16.522Z,57.19
2023-09-07T20:42:16.522Z,57.37
2023-09-07T20:44:16.554Z,57.80
2023-09-07T20:46:16.589Z,58.49
2023-09-07T20:48:16.594Z,59.58
2023-09-07T20:50:16.539Z,60.77
2023-09-07T20:52:16.578Z,60.72
2023-09-07T20:54:16.663Z,60.72
2023-09-07T20:58:16.599Z,61.38
2023-09-07T21:00:16.607Z,61.48
2023-09-07T21:02:16.694Z,61.87
2023-09-07T21:04:16.638Z,62.72
2023-09-07T21:06:16.649Z,62.83
2023-09-07T21:08:16.602Z,61.97
2023-09-07T21:10:16.679Z,61.49
2023-09-07T21:12:16.686Z,62.46
2023-09-07T21:14:16.605Z,62.50
2023-09-07T21:16:16.725Z,62.30
2023-09-07T21:18:16.776Z,61.63
2023-09-07T21:20:16.667Z,60.74
2023-09-07T21:22:16.660Z,60.57
2023-09-07T21:24:16.661Z,59.94
2023-09-07T21:26:16.670Z,59.32
2023-09-07T21:28:16.682Z,59.12
2023-09-07T21:30:16.738Z,59.05
2023-09-07T21:32:16.645Z,58.96
2023-09-07T21:35:16.728Z,58.79
2023-09-07T21:38:16.711Z,58.80
2023-09-07T21:40:16.711Z,59.03
2023-09-07T21:42:16.692Z,59.68
2023-09-07T21:44:16.724Z,59.52
2023-09-07T21:46:16.889Z,59.44
2023-09-07T21:48:16.694Z,59.33
2023-09-07T21:50:16.720Z,59.61
2023-09-07T21:52:16.740Z,59.59
2023-09-07T21:54:16.751Z,59.88
2023-09-07T21:56:16.768Z,60.06
2023-09-07T21:58:16.746Z,61.26
2023-09-07T22:00:16.754Z,61.13
2023-09-07T22:03:16.815Z,60.79
2023-09-07T22:05:16.801Z,60.54
2023-09-07T22:08:16.980Z,60.78
2023-09-07T22:10:16.781Z,60.70
2023-09-07T22:13:16.805Z,60.93
2023-09-07T22:15:16.849Z,60.71
2023-09-07T22:17:16.818Z,60.75
2023-09-07T22:19:16.786Z,61.13
2023-09-07T22:21:16.821Z,61.34
2023-09-07T22:23:20.680Z,61.81
2023-09-07T22:25:16.793Z,61.61
2023-09-07T22:27:16.805Z,61.12
2023-09-07T22:30:16.832Z,61.16
2023-09-07T22:32:16.840Z,60.83
2023-09-07T22:34:16.869Z,60.97
2023-09-07T22:36:16.860Z,62.47
2023-09-07T22:38:16.829Z,63.22
2023-09-07T22:40:17.087Z,62.61
2023-09-07T22:42:16.873Z,62.50
2023-09-07T22:44:16.960Z,62.05
2023-09-07T22:46:16.937Z,61.70
2023-09-07T22:48:16.869Z,61.97
2023-09-07T22:50:16.888Z,63.20
2023-09-07T22:52:16.890Z,63.58
2023-09-07T22:54:17.011Z,63.25
2023-09-07T22:56:16.869Z,63.58
2023-09-07T22:58:16.916Z,63.34
2023-09-07T23:00:16.982Z,63.15
2023-09-07T23:02:16.935Z,63.84
2023-09-07T23:04:17.072Z,64.09
2023-09-07T23:06:16.909Z,64.25
2023-09-07T23:08:16.986Z,64.11
2023-09-07T23:10:16.957Z,64.11
2023-09-07T23:12:17.095Z,63.64
2023-09-07T23:14:16.916Z,63.09
2023-09-07T23:16:16.989Z,63.60
2023-09-07T23:18:17.067Z,63.42
2023-09-07T23:20:16.949Z,63.12
2023-09-07T23:22:16.947Z,63.00
2023-09-07T23:24:17.033Z,63.14
2023-09-07T23:26:16.979Z,62.96
2023-09-07T23:28:16.965Z,62.85
2023-09-07T23:30:17.013Z,62.69
2023-09-07T23:32:17.015Z,62.43
2023-09-07T23:34:17.071Z,62.21
2023-09-07T23:37:17.043Z,62.62
2023-09-07T23:39:17.038Z,62.83
2023-09-07T23:41:16.992Z,63.01
2023-09-07T23:43:17.001Z,63.39
2023-09-07T23:45:17.013Z,63.05
2023-09-07T23:47:17.099Z,62.69
2023-09-07T23:49:17.081Z,62.50
2023-09-07T23:51:17.014Z,62.53
2023-09-07T23:54:17.029Z,63.01
2023-09-07T23:56:17.053Z,62.92
2023-09-07T23:58:17.124Z,62.78
